Terminal Aerodrome Forecast
Issued by NWS Binghamton, NY

Home | Current Version | Previous Version | Text Only | Print | Product List | Glossary On
Versions: 1 2 3 4 5 6 7 8 9 10 11 12 13 14 15 16 17 18
000
FTUS41 KBGM 191200 AAA
TAFBGM
TAF AMD
KBGM 191230Z 1913/2012 33009KT P6SM SCT015
     FM191400 33012G18KT P6SM BKN035
     FM191700 34013G21KT P6SM SCT040
     FM192000 36014G23KT P6SM SKC
     FM200000 02006KT P6SM SKC=

USA.gov is the U.S. government's official web portal to all federal, state and local government web resources and services.